Time;durP1;ratioP1;P1;durP2;ratioP2;P2;SDS_P1;SDS_P2;PMS_P1;PMS_P2;Temp;Humidity;BMP_temperature;BMP_pressure;BME280_temperature;BME280_humidity;BME280_pressure;Samples;Min_cycle;Max_cycle;Signal;HPM_P1;HPM_P2
2024/01/18 00:00:13;;;;;;;11.18;7.93;;;;;;;5.33;54.95;94367.78;5048535;28;20499;-74
2024/01/18 00:02:39;;;;;;;11.18;7.00;;;;;;;5.29;55.05;94365.16;5046519;28;20042;-75
2024/01/18 00:05:06;;;;;;;11.50;7.47;;;;;;;5.23;55.38;94366.81;5048022;28;20029;-75
2024/01/18 00:07:31;;;;;;;11.85;7.60;;;;;;;5.26;55.48;94362.47;5046962;28;20403;-74
2024/01/18 00:09:57;;;;;;;9.40;7.18;;;;;;;5.26;55.48;94354.31;5047684;28;20017;-74
2024/01/18 00:12:22;;;;;;;11.32;7.13;;;;;;;5.32;55.41;94363.53;5047413;28;20083;-74
2024/01/18 00:14:47;;;;;;;11.60;7.97;;;;;;;5.31;55.65;94360.03;5047079;28;20032;-75
2024/01/18 00:17:13;;;;;;;12.27;8.35;;;;;;;5.34;55.31;94355.72;5048018;28;20456;-74
2024/01/18 00:19:38;;;;;;;10.88;8.10;;;;;;;5.31;55.61;94351.09;5046934;28;20032;-75
2024/01/18 00:22:03;;;;;;;12.00;8.70;;;;;;;5.30;55.81;94355.00;5047927;28;20017;-75
2024/01/18 00:24:29;;;;;;;10.48;7.70;;;;;;;5.32;55.89;94344.44;5046802;28;20025;-75
2024/01/18 00:26:55;;;;;;;11.02;8.23;;;;;;;5.33;55.85;94337.81;5047757;28;20049;-74
2024/01/18 00:29:21;;;;;;;12.60;8.50;;;;;;;5.33;56.07;94359.63;5046518;28;20033;-75
2024/01/18 00:31:46;;;;;;;12.05;8.43;;;;;;;5.36;55.71;94347.13;5047027;28;20172;-75
2024/01/18 00:34:11;;;;;;;10.80;8.32;;;;;;;5.32;55.99;94341.72;5047512;28;20028;-75
2024/01/18 00:36:37;;;;;;;11.20;8.15;;;;;;;5.34;56.42;94344.81;5046519;28;20506;-75
2024/01/18 00:39:08;;;;;;;13.20;8.23;;;;;;;5.33;56.43;94337.81;5048242;28;20098;-74
2024/01/18 00:41:36;;;;;;;12.18;8.13;;;;;;;5.35;56.47;94332.72;5046334;28;20048;-75
2024/01/18 00:44:01;;;;;;;13.18;8.35;;;;;;;5.33;56.79;94332.34;5047573;28;20025;-75
2024/01/18 00:46:27;;;;;;;14.07;7.93;;;;;;;5.34;56.79;94342.09;5046293;28;20021;-75
2024/01/18 00:48:52;;;;;;;11.73;7.97;;;;;;;5.35;56.93;94329.25;5046849;28;20479;-75
2024/01/18 00:51:18;;;;;;;10.15;7.85;;;;;;;5.41;56.51;94319.38;5047025;28;20450;-74
2024/01/18 00:53:43;;;;;;;13.40;7.85;;;;;;;5.33;56.75;94322.25;5046118;28;20039;-74
2024/01/18 00:56:10;;;;;;;15.65;8.70;;;;;;;5.37;57.04;94322.16;5047575;28;20021;-74
2024/01/18 00:58:36;;;;;;;14.88;9.50;;;;;;;5.39;56.99;94328.00;5046062;28;20024;-75
2024/01/18 01:01:02;;;;;;;17.48;9.38;;;;;;;5.42;57.04;94321.69;5047278;28;20082;-75
2024/01/18 01:03:27;;;;;;;12.35;8.07;;;;;;;5.51;57.31;94321.91;5046097;28;20028;-74
2024/01/18 01:05:53;;;;;;;11.52;8.45;;;;;;;5.45;57.55;94311.88;5046584;28;20028;-75
2024/01/18 01:08:18;;;;;;;11.75;8.45;;;;;;;5.42;57.62;94312.75;5046035;28;20107;-75
2024/01/18 01:10:44;;;;;;;12.25;8.68;;;;;;;5.39;57.68;94305.38;5046345;28;20024;-75
2024/01/18 01:13:09;;;;;;;11.77;8.52;;;;;;;5.40;58.05;94291.38;5047269;28;20025;-75
2024/01/18 01:15:35;;;;;;;12.57;8.93;;;;;;;5.39;58.02;94295.28;5045905;28;20442;-75
2024/01/18 01:18:00;;;;;;;12.93;8.68;;;;;;;5.41;57.94;94287.44;5046664;28;20049;-74
2024/01/18 01:20:25;;;;;;;14.75;9.05;;;;;;;5.41;58.01;94268.38;5045890;28;20043;-74
2024/01/18 01:22:51;;;;;;;11.05;8.65;;;;;;;5.42;58.06;94255.50;5046328;28;20475;-74
2024/01/18 01:25:16;;;;;;;11.73;8.48;;;;;;;5.48;58.57;94251.84;5045898;28;20096;-74
2024/01/18 01:27:42;;;;;;;14.10;9.52;;;;;;;5.44;58.03;94248.44;5046393;28;20033;-75
2024/01/18 01:30:08;;;;;;;11.60;8.55;;;;;;;5.46;58.80;94272.56;5046163;28;20112;-73
2024/01/18 01:32:33;;;;;;;11.50;8.75;;;;;;;5.45;59.07;94274.53;5045764;28;20052;-74
2024/01/18 01:34:59;;;;;;;12.32;8.98;;;;;;;5.46;59.58;94265.16;5046314;28;20506;-74
2024/01/18 01:37:24;;;;;;;13.38;8.68;;;;;;;5.50;59.72;94260.38;5045627;28;20029;-75
2024/01/18 01:39:49;;;;;;;10.82;7.90;;;;;;;5.44;59.39;94255.84;5046223;28;20101;-75
2024/01/18 01:42:15;;;;;;;12.30;8.40;;;;;;;5.51;58.26;94259.22;5045275;28;20021;-75
2024/01/18 01:44:40;;;;;;;11.68;8.20;;;;;;;5.48;58.53;94251.84;5044584;28;20116;-75
2024/01/18 01:47:06;;;;;;;11.10;8.05;;;;;;;5.46;58.70;94253.47;5045518;28;20024;-74
2024/01/18 01:49:31;;;;;;;13.50;8.55;;;;;;;5.41;59.56;94243.06;5046173;28;20075;-75
2024/01/18 01:51:57;;;;;;;11.68;8.52;;;;;;;5.44;60.01;94234.03;5044937;28;20037;-75
2024/01/18 01:54:28;;;;;;;12.05;8.25;;;;;;;5.46;60.15;94237.88;5043759;28;20104;-74
2024/01/18 01:56:54;;;;;;;13.40;9.30;;;;;;;5.51;60.12;94239.34;5046406;28;20509;-75
2024/01/18 01:59:20;;;;;;;11.48;8.32;;;;;;;5.56;60.19;94234.19;5044815;28;20025;-75
2024/01/18 02:01:46;;;;;;;11.20;8.40;;;;;;;5.52;60.23;94238.16;5045622;28;20033;-74
2024/01/18 02:04:12;;;;;;;14.63;8.60;;;;;;;5.54;60.26;94239.25;5043428;28;20028;-75
2024/01/18 02:06:39;;;;;;;11.65;8.85;;;;;;;5.51;60.26;94228.44;5045709;28;20052;-75
2024/01/18 02:09:05;;;;;;;10.85;7.93;;;;;;;5.60;59.92;94232.13;5045818;28;20032;-74
2024/01/18 02:11:31;;;;;;;11.02;7.97;;;;;;;5.50;60.05;94226.91;5044756;28;20025;-74
2024/01/18 02:13:57;;;;;;;11.00;7.50;;;;;;;5.49;60.44;94231.56;5044381;28;20040;-75
2024/01/18 02:16:23;;;;;;;11.50;7.97;;;;;;;5.48;60.35;94223.81;5044460;28;20090;-74
2024/01/18 02:18:48;;;;;;;10.63;7.78;;;;;;;5.47;60.43;94212.16;5045043;28;20029;-74
2024/01/18 02:21:14;;;;;;;11.52;7.53;;;;;;;5.49;60.50;94214.47;5044290;28;20091;-74
2024/01/18 02:23:41;;;;;;;9.40;7.70;;;;;;;5.52;60.22;94208.94;5045196;28;20114;-75
2024/01/18 02:26:06;;;;;;;13.88;8.48;;;;;;;5.51;60.25;94215.59;5043785;28;20052;-74
2024/01/18 02:28:32;;;;;;;12.00;8.10;;;;;;;5.57;59.92;94199.50;5044804;28;20056;-74
2024/01/18 02:30:57;;;;;;;11.60;7.97;;;;;;;5.53;59.89;94202.28;5045431;28;20119;-74
2024/01/18 02:33:23;;;;;;;11.98;7.72;;;;;;;5.51;59.73;94215.59;5044051;28;20033;-74
2024/01/18 02:35:49;;;;;;;11.38;7.85;;;;;;;5.52;59.54;94198.03;5043914;28;20106;-73
2024/01/18 02:38:15;;;;;;;12.48;7.95;;;;;;;5.54;59.44;94206.56;5044309;28;20029;-73
2024/01/18 02:40:40;;;;;;;13.60;8.13;;;;;;;5.53;59.48;94191.38;5044902;28;20102;-74
2024/01/18 02:43:06;;;;;;;10.32;7.80;;;;;;;5.57;59.32;94194.06;5044249;28;20060;-74
2024/01/18 02:45:31;;;;;;;10.63;7.22;;;;;;;5.51;59.30;94188.31;5044989;28;20061;-74
2024/01/18 02:47:57;;;;;;;11.05;8.45;;;;;;;5.51;59.64;94182.09;5026818;28;20120;-73
2024/01/18 02:50:22;;;;;;;11.52;7.95;;;;;;;5.51;59.55;94185.59;5044451;28;20057;-73
2024/01/18 02:52:47;;;;;;;12.40;9.07;;;;;;;5.50;59.68;94177.81;5045186;28;20468;-74
2024/01/18 02:55:13;;;;;;;12.82;7.95;;;;;;;5.55;59.74;94188.22;5043770;28;20029;-74
2024/01/18 02:57:38;;;;;;;13.75;9.77;;;;;;;5.47;59.83;94195.81;5045512;28;20039;-74
2024/01/18 03:00:04;;;;;;;15.30;9.40;;;;;;;5.47;60.08;94182.16;5043593;28;20569;-74
2024/01/18 03:02:30;;;;;;;14.70;9.80;;;;;;;5.52;60.07;94178.94;5045142;28;20032;-74
2024/01/18 03:04:55;;;;;;;14.80;10.85;;;;;;;5.45;60.19;94160.03;5044343;28;20021;-74
2024/01/18 03:07:20;;;;;;;18.05;12.27;;;;;;;5.48;60.14;94172.81;5044629;28;20094;-74
2024/01/18 03:09:47;;;;;;;17.80;13.00;;;;;;;5.45;60.33;94178.31;5044866;28;20472;-74
2024/01/18 03:12:12;;;;;;;17.60;12.57;;;;;;;5.39;60.63;94172.63;5043631;28;20071;-74
2024/01/18 03:14:38;;;;;;;19.50;13.95;;;;;;;5.41;60.46;94172.19;5045253;28;20029;-74
2024/01/18 03:17:03;;;;;;;23.42;14.98;;;;;;;5.43;60.55;94184.19;5043166;28;20052;-75
2024/01/18 03:19:28;;;;;;;22.02;16.05;;;;;;;5.41;60.78;94181.13;5045073;28;20111;-75
2024/01/18 03:21:54;;;;;;;21.95;15.88;;;;;;;5.35;60.99;94169.19;5043754;28;20472;-75
2024/01/18 03:24:19;;;;;;;41.05;22.25;;;;;;;5.40;60.79;94167.94;5044391;28;20029;-75
2024/01/18 03:26:44;;;;;;;41.70;22.90;;;;;;;5.42;60.79;94190.84;5044784;28;20024;-75
2024/01/18 03:29:10;;;;;;;44.70;21.52;;;;;;;5.45;60.44;94190.00;5043641;28;20717;-75
2024/01/18 03:31:35;;;;;;;41.15;21.58;;;;;;;5.41;60.44;94180.38;5047663;28;20096;-74
2024/01/18 03:34:01;;;;;;;36.35;20.95;;;;;;;5.37;60.82;94176.94;5047122;28;20397;-73
2024/01/18 03:36:26;;;;;;;25.10;16.17;;;;;;;5.40;60.89;94174.16;5048726;28;20021;-73
2024/01/18 03:38:52;;;;;;;28.17;16.75;;;;;;;5.38;61.25;94170.28;5047363;28;20035;-73
2024/01/18 03:41:17;;;;;;;23.27;14.30;;;;;;;5.38;61.22;94164.84;5049110;28;20033;-73
2024/01/18 03:43:43;;;;;;;21.77;11.88;;;;;;;5.38;61.71;94164.84;5047662;28;20559;-74
2024/01/18 03:46:14;;;;;;;14.68;10.57;;;;;;;5.42;61.64;94171.00;5048275;28;20032;-73
2024/01/18 03:48:40;;;;;;;13.88;9.93;;;;;;;5.40;61.82;94173.38;5048876;28;20488;-74
2024/01/18 03:51:05;;;;;;;13.13;8.82;;;;;;;5.38;61.99;94165.59;5047256;28;20017;-74
2024/01/18 03:53:30;;;;;;;14.48;9.95;;;;;;;5.38;62.09;94164.84;5048519;28;20037;-74
2024/01/18 03:55:56;;;;;;;13.48;9.70;;;;;;;5.38;62.33;94165.59;5046925;28;20036;-74
2024/01/18 03:58:21;;;;;;;12.73;9.15;;;;;;;5.41;62.36;94181.13;5048242;28;20025;-75
2024/01/18 04:00:47;;;;;;;11.05;7.80;;;;;;;5.37;62.55;94182.41;5047113;28;20047;-75
2024/01/18 04:03:12;;;;;;;10.98;8.23;;;;;;;5.33;62.90;94180.53;5047922;28;20090;-75
2024/01/18 04:05:37;;;;;;;14.32;8.95;;;;;;;5.44;62.64;94183.00;5048353;28;20040;-75
2024/01/18 04:08:03;;;;;;;11.50;8.45;;;;;;;5.45;62.80;94183.75;5047324;28;20027;-75
2024/01/18 04:10:28;;;;;;;10.82;7.32;;;;;;;5.45;62.92;94181.84;5048650;28;20037;-75
2024/01/18 04:12:54;;;;;;;11.32;7.90;;;;;;;5.46;63.02;94188.81;5046873;28;20028;-75
2024/01/18 04:15:19;;;;;;;15.02;8.93;;;;;;;5.39;63.18;94180.00;5048560;28;20104;-74
2024/01/18 04:17:45;;;;;;;11.30;7.85;;;;;;;5.39;63.33;94180.78;5046659;28;20048;-74
2024/01/18 04:20:13;;;;;;;12.60;8.75;;;;;;;5.40;63.33;94187.00;5048370;28;20071;-75
2024/01/18 04:22:39;;;;;;;13.77;9.60;;;;;;;5.41;63.36;94172.19;5047344;28;20025;-74
2024/01/18 04:25:05;;;;;;;13.43;9.02;;;;;;;5.44;63.46;94179.50;5047002;28;20075;-74
2024/01/18 04:27:30;;;;;;;13.73;9.75;;;;;;;5.40;63.48;94182.34;5048091;28;20078;-74
2024/01/18 04:29:56;;;;;;;11.75;8.98;;;;;;;5.38;63.56;94173.78;5046263;28;20029;-74
2024/01/18 04:32:21;;;;;;;15.85;10.90;;;;;;;5.36;63.59;94167.22;5047731;28;20039;-74
2024/01/18 04:34:46;;;;;;;17.10;11.85;;;;;;;5.36;63.58;94197.97;5046566;28;20028;-75
2024/01/18 04:37:12;;;;;;;17.27;11.52;;;;;;;5.44;63.59;94184.97;5047668;28;20033;-73
2024/01/18 04:39:37;;;;;;;15.93;10.80;;;;;;;5.35;63.89;94195.69;5046938;28;20017;-74
2024/01/18 04:42:03;;;;;;;11.18;9.00;;;;;;;5.34;64.13;94178.56;5046403;28;20071;-75
2024/01/18 04:44:28;;;;;;;15.60;10.18;;;;;;;5.38;63.75;94190.13;5047717;28;20032;-75
2024/01/18 04:46:53;;;;;;;15.65;8.80;;;;;;;5.38;63.64;94181.97;5046229;28;20032;-74
2024/01/18 04:49:19;;;;;;;12.23;8.48;;;;;;;5.36;63.75;94168.00;5047776;28;20041;-74
2024/01/18 04:51:44;;;;;;;11.80;8.35;;;;;;;5.42;63.69;94160.09;5046171;28;20514;-76
2024/01/18 04:54:09;;;;;;;13.38;9.77;;;;;;;5.47;63.38;94174.00;5046934;28;20032;-74
2024/01/18 04:56:37;;;;;;;12.55;9.70;;;;;;;5.51;63.38;94174.69;5046244;28;20029;-74
2024/01/18 04:59:03;;;;;;;12.32;9.02;;;;;;;5.49;63.24;94152.53;5046796;28;20025;-74
2024/01/18 05:01:28;;;;;;;12.43;9.48;;;;;;;5.44;63.44;94174.81;5046983;28;20036;-74
2024/01/18 05:03:54;;;;;;;13.27;9.63;;;;;;;5.48;63.33;94170.06;5046117;28;20025;-74
2024/01/18 05:06:19;;;;;;;14.55;9.52;;;;;;;5.45;63.52;94181.03;5047750;28;20047;-74
2024/01/18 05:08:45;;;;;;;11.95;8.98;;;;;;;5.43;63.25;94186.91;5045931;28;20090;-75
2024/01/18 05:11:10;;;;;;;11.60;8.88;;;;;;;5.42;63.31;94177.22;5047072;28;20029;-74
2024/01/18 05:13:36;;;;;;;14.63;10.80;;;;;;;5.40;63.70;94187.78;5045752;28;20465;-75
2024/01/18 05:16:01;;;;;;;16.23;9.55;;;;;;;5.40;63.56;94189.75;5046574;28;20036;-74
2024/01/18 05:18:27;;;;;;;14.75;10.18;;;;;;;5.38;63.74;94190.13;5044966;28;20028;-75
2024/01/18 05:20:52;;;;;;;12.10;8.77;;;;;;;5.42;63.48;94185.38;5046644;28;20465;-75
2024/01/18 05:23:18;;;;;;;15.45;8.65;;;;;;;5.39;63.81;94186.25;5046761;28;20419;-75
2024/01/18 05:25:43;;;;;;;12.50;9.07;;;;;;;5.40;63.85;94185.06;5045949;28;20079;-75
2024/01/18 05:28:09;;;;;;;15.10;10.48;;;;;;;5.39;63.68;94188.19;5047127;28;20074;-75
2024/01/18 05:30:34;;;;;;;13.35;9.05;;;;;;;5.40;63.82;94192.47;5045498;28;20032;-75
2024/01/18 05:33:00;;;;;;;13.10;8.85;;;;;;;5.43;64.03;94203.28;5046585;28;20029;-75
2024/01/18 05:35:25;;;;;;;13.40;9.18;;;;;;;5.48;63.87;94189.16;5045368;28;20053;-75
2024/01/18 05:37:50;;;;;;;12.65;8.90;;;;;;;5.51;63.91;94180.16;5046630;28;20194;-75
2024/01/18 05:40:16;;;;;;;12.75;8.52;;;;;;;5.52;63.92;94189.09;5045781;28;20032;-75
2024/01/18 05:42:42;;;;;;;13.60;9.25;;;;;;;5.49;64.03;94193.41;5045637;28;20025;-75
2024/01/18 05:45:07;;;;;;;12.63;8.43;;;;;;;5.42;64.52;94177.22;5046734;28;20081;-74
2024/01/18 05:47:33;;;;;;;11.68;7.50;;;;;;;5.46;65.48;94175.19;5045477;28;20017;-75
2024/01/18 05:49:59;;;;;;;11.63;8.45;;;;;;;5.53;64.71;94183.22;5046676;28;20025;-75
2024/01/18 05:52:24;;;;;;;13.15;8.88;;;;;;;5.53;64.82;94185.16;5045601;28;20028;-74
2024/01/18 05:54:50;;;;;;;11.02;7.78;;;;;;;5.52;64.98;94187.13;5045245;28;20021;-75
2024/01/18 05:57:16;;;;;;;14.70;9.40;;;;;;;5.48;65.15;94196.56;5045393;28;20024;-75
2024/01/18 05:59:41;;;;;;;13.40;8.63;;;;;;;5.54;65.25;94187.47;5046410;28;20029;-75
2024/01/18 06:02:09;;;;;;;12.60;8.38;;;;;;;5.54;65.22;94179.28;5045668;28;20483;-75
2024/01/18 06:04:34;;;;;;;12.68;8.98;;;;;;;5.56;65.07;94179.66;5045468;28;20090;-76
2024/01/18 06:07:00;;;;;;;14.90;9.50;;;;;;;5.58;65.06;94179.22;5045923;28;20033;-74
2024/01/18 06:09:25;;;;;;;14.93;9.65;;;;;;;5.73;64.63;94187.84;5044849;28;20112;-75
2024/01/18 06:11:51;;;;;;;13.00;9.75;;;;;;;5.65;64.68;94176.34;5045898;28;20561;-74
2024/01/18 06:14:16;;;;;;;13.98;9.68;;;;;;;5.75;64.57;94180.78;5043199;28;20033;-74
2024/01/18 06:16:42;;;;;;;15.32;10.43;;;;;;;5.68;64.68;94177.44;5045648;28;20063;-75
2024/01/18 06:19:08;;;;;;;15.88;10.10;;;;;;;5.75;64.54;94174.56;5044918;28;20112;-78
2024/01/18 06:21:33;;;;;;;13.18;10.00;;;;;;;5.74;64.76;94181.22;5043996;28;20021;-78
2024/01/18 06:23:59;;;;;;;13.45;9.70;;;;;;;5.70;65.05;94183.25;5046010;28;20021;-79
2024/01/18 06:26:24;;;;;;;14.32;10.27;;;;;;;5.72;64.73;94199.94;5044776;28;20024;-78
2024/01/18 06:28:50;;;;;;;16.45;10.95;;;;;;;5.77;64.63;94199.44;5045914;28;20074;-78
2024/01/18 06:31:15;;;;;;;14.40;11.25;;;;;;;5.75;64.72;94167.16;5044380;28;20497;-78
2024/01/18 06:33:41;;;;;;;24.25;14.95;;;;;;;5.78;65.00;94190.84;5045613;28;20103;-76
2024/01/18 06:36:09;;;;;;;20.48;12.35;;;;;;;5.81;65.06;94213.78;5044726;28;20079;-77
2024/01/18 06:38:34;;;;;;;13.35;10.38;;;;;;;5.76;65.08;94187.78;5045668;28;20188;-76
2024/01/18 06:41:00;;;;;;;19.60;12.52;;;;;;;5.83;65.11;94181.38;5045055;28;20159;-78
2024/01/18 06:43:26;;;;;;;15.57;12.43;;;;;;;5.81;64.64;94184.53;5044939;28;20090;-78
2024/01/18 06:45:55;;;;;;;17.23;11.65;;;;;;;5.91;64.42;94203.81;5045785;28;20039;-77
2024/01/18 06:48:24;;;;;;;20.30;12.82;;;;;;;5.95;64.16;94158.16;5044701;28;20025;-78
2024/01/18 06:50:50;;;;;;;20.83;13.05;;;;;;;5.87;64.44;94138.44;5045634;28;20492;-79
2024/01/18 06:53:16;;;;;;;19.98;12.52;;;;;;;5.96;64.39;94176.06;5044134;28;20025;-80
2024/01/18 06:55:41;;;;;;;15.80;11.82;;;;;;;5.95;64.81;94167.09;5045347;28;20033;-77
2024/01/18 06:58:07;;;;;;;16.60;11.95;;;;;;;5.96;64.73;94174.09;5044358;28;20032;-77
2024/01/18 07:00:33;;;;;;;19.33;13.63;;;;;;;6.01;64.86;94175.53;5044549;28;20064;-78
2024/01/18 07:02:59;;;;;;;18.27;12.50;;;;;;;5.93;65.04;94166.78;5045432;28;20033;-78
2024/01/18 07:05:24;;;;;;;17.35;12.43;;;;;;;5.98;64.58;94160.81;5044321;28;20025;-78
2024/01/18 07:07:50;;;;;;;17.95;12.77;;;;;;;5.95;64.97;94149.97;5045641;28;20021;-78
2024/01/18 07:10:17;;;;;;;17.58;13.00;;;;;;;5.95;65.07;94147.25;5043724;28;20037;-79
2024/01/18 07:12:43;;;;;;;17.23;12.20;;;;;;;5.99;65.02;94137.78;5045113;28;20143;-78
2024/01/18 07:15:08;;;;;;;19.00;13.85;;;;;;;6.00;65.13;94139.31;5044360;28;20477;-78
2024/01/18 07:17:34;;;;;;;21.00;14.10;;;;;;;5.96;65.21;94108.63;5044973;28;20148;-78
2024/01/18 07:19:59;;;;;;;19.48;13.20;;;;;;;6.03;64.98;94097.53;5044486;28;20467;-77
2024/01/18 07:22:26;;;;;;;17.65;12.75;;;;;;;6.13;64.85;94109.38;5044013;28;20033;-77
2024/01/18 07:24:52;;;;;;;19.95;12.77;;;;;;;6.15;64.85;94076.97;5045460;28;20467;-77
2024/01/18 07:27:17;;;;;;;16.80;12.32;;;;;;;6.18;64.78;94065.19;5043774;28;20032;-77
2024/01/18 07:29:43;;;;;;;18.90;13.57;;;;;;;6.19;65.02;94041.41;5044680;28;20029;-77
2024/01/18 07:32:08;;;;;;;18.92;13.18;;;;;;;6.27;64.73;94070.06;5042014;28;20045;-77
2024/01/18 07:34:34;;;;;;;15.65;13.18;;;;;;;6.42;65.02;94034.94;5044753;28;20124;-77
2024/01/18 07:37:00;;;;;;;22.02;15.23;;;;;;;6.47;64.52;94034.41;5044178;28;20021;-78
2024/01/18 07:39:27;;;;;;;24.25;17.83;;;;;;;6.47;64.53;94051.56;5044723;28;20021;-77
2024/01/18 07:41:52;;;;;;;23.42;16.50;;;;;;;6.48;64.46;94012.16;5044846;28;20090;-77
2024/01/18 07:44:18;;;;;;;25.73;17.58;;;;;;;6.58;64.29;94026.69;5043817;28;20041;-78
2024/01/18 07:46:43;;;;;;;15.65;13.13;;;;;;;6.64;63.73;94038.59;5044957;28;20132;-78
2024/01/18 07:49:08;;;;;;;15.50;10.85;;;;;;;6.64;63.83;94028.44;5043283;28;20040;-78
2024/01/18 07:51:34;;;;;;;23.70;15.43;;;;;;;6.72;63.75;94026.31;5044741;28;20021;-78
2024/01/18 07:53:59;;;;;;;23.60;17.05;;;;;;;6.75;63.69;94024.66;5043450;28;20546;-79
2024/01/18 07:56:27;;;;;;;27.13;20.00;;;;;;;6.89;63.25;94024.25;5045067;28;20070;-78
2024/01/18 07:58:52;;;;;;;26.58;18.27;;;;;;;7.01;63.01;94017.28;5044966;28;20066;-78
2024/01/18 08:01:18;;;;;;;24.15;17.77;;;;;;;7.10;62.86;94034.53;5043809;28;20108;-77
2024/01/18 08:03:43;;;;;;;25.70;19.13;;;;;;;7.19;62.50;94023.72;5045318;28;20032;-78
2024/01/18 08:06:11;;;;;;;23.73;18.17;;;;;;;7.33;62.09;94021.75;5043576;28;20028;-79
2024/01/18 08:08:37;;;;;;;27.92;18.50;;;;;;;7.35;62.27;94022.09;5045466;28;20021;-78
2024/01/18 08:11:02;;;;;;;24.33;17.13;;;;;;;7.42;62.03;94008.22;5043653;28;20024;-78
2024/01/18 08:13:28;;;;;;;22.48;17.00;;;;;;;7.49;61.68;94010.72;5044797;28;20408;-77
2024/01/18 08:15:56;;;;;;;26.05;16.55;;;;;;;7.50;61.55;94006.00;5043920;28;20029;-77
2024/01/18 08:18:23;;;;;;;23.98;16.70;;;;;;;7.56;61.34;94002.28;5046118;28;20024;-77
2024/01/18 08:20:50;;;;;;;23.27;15.32;;;;;;;7.53;61.60;94005.91;5048644;28;20170;-79
2024/01/18 08:23:15;;;;;;;20.48;14.98;;;;;;;7.58;61.44;94008.09;5046825;28;20032;-77
2024/01/18 08:25:41;;;;;;;22.67;14.70;;;;;;;7.64;61.17;94022.72;5048553;28;20021;-77
2024/01/18 08:28:06;;;;;;;20.13;14.00;;;;;;;7.62;61.30;94021.63;5046781;28;20036;-77
2024/01/18 08:30:31;;;;;;;19.08;14.98;;;;;;;7.60;61.35;94022.06;5048066;28;20028;-77
2024/01/18 08:32:57;;;;;;;18.88;13.73;;;;;;;7.57;61.58;93992.88;5046444;28;20037;-78
2024/01/18 08:35:22;;;;;;;18.60;13.30;;;;;;;7.66;61.42;93995.69;5047611;28;20037;-78
2024/01/18 08:37:48;;;;;;;23.65;15.80;;;;;;;7.67;61.55;93985.50;5047682;28;20025;-79
2024/01/18 08:40:14;;;;;;;21.15;16.02;;;;;;;7.69;61.56;93983.88;5046303;28;20247;-77
2024/01/18 08:42:43;;;;;;;19.67;14.13;;;;;;;7.72;61.33;93985.72;5047999;28;20021;-78
2024/01/18 08:45:09;;;;;;;21.88;13.48;;;;;;;7.77;61.63;93972.69;5044558;28;20404;-78
2024/01/18 08:47:35;;;;;;;18.08;12.38;;;;;;;7.79;61.57;93992.94;5047768;28;20483;-78
2024/01/18 08:50:00;;;;;;;16.65;12.55;;;;;;;7.81;61.64;93998.75;5044666;28;20048;-78
2024/01/18 08:52:25;;;;;;;18.42;13.13;;;;;;;7.75;61.86;93988.81;5047242;28;20021;-78
2024/01/18 08:54:51;;;;;;;17.00;12.48;;;;;;;7.79;61.68;94001.13;5046811;28;20055;-79
2024/01/18 08:57:17;;;;;;;15.90;11.40;;;;;;;7.90;61.57;94012.50;5046374;28;20104;-77
2024/01/18 08:59:43;;;;;;;17.30;11.63;;;;;;;7.84;61.72;93977.94;5047835;28;20033;-79
2024/01/18 09:02:09;;;;;;;18.98;11.95;;;;;;;7.87;61.89;93980.56;5045597;28;20017;-77
2024/01/18 09:04:34;;;;;;;17.67;13.35;;;;;;;7.95;61.75;93970.88;5047719;28;20025;-79
2024/01/18 09:07:00;;;;;;;17.08;11.80;;;;;;;8.00;61.42;93969.56;5045558;28;20047;-79
2024/01/18 09:09:25;;;;;;;17.45;12.95;;;;;;;8.11;61.24;93964.50;5047587;28;20506;-79
2024/01/18 09:11:52;;;;;;;23.83;13.88;;;;;;;8.21;61.34;93981.75;5046007;28;20472;-78
2024/01/18 09:14:17;;;;;;;22.33;14.63;;;;;;;8.22;61.32;93983.28;5046516;28;20044;-79
2024/01/18 09:16:42;;;;;;;23.20;15.63;;;;;;;8.32;61.19;93971.19;5046833;28;20041;-78
2024/01/18 09:19:09;;;;;;;20.15;14.75;;;;;;;8.48;60.66;93978.47;5045906;28;20025;-77
2024/01/18 09:21:40;;;;;;;21.25;13.65;;;;;;;8.61;60.55;93959.25;5047435;28;20037;-78
2024/01/18 09:24:05;;;;;;;22.77;14.98;;;;;;;8.75;60.25;93967.69;5045537;28;20032;-78
2024/01/18 09:26:31;;;;;;;18.48;14.18;;;;;;;9.00;59.57;93966.75;5047250;28;20021;-78
2024/01/18 09:28:56;;;;;;;18.40;13.82;;;;;;;9.14;59.13;93950.97;5045210;28;20076;-79
2024/01/18 09:31:22;;;;;;;19.83;13.43;;;;;;;9.54;58.46;93946.22;5046429;28;20037;-77
2024/01/18 09:33:47;;;;;;;20.35;14.82;;;;;;;9.62;58.12;93943.94;5046294;28;20062;-78
2024/01/18 09:36:13;;;;;;;20.60;14.85;;;;;;;9.75;57.95;93933.63;5045818;28;20021;-78
2024/01/18 09:38:38;;;;;;;24.90;14.82;;;;;;;9.79;57.86;93912.25;5047089;28;20742;-79
2024/01/18 09:41:07;;;;;;;28.38;16.83;;;;;;;9.74;58.05;93901.88;5043748;28;20053;-78
2024/01/18 09:43:36;;;;;;;25.60;15.15;;;;;;;9.73;58.20;93872.91;5046928;28;20059;-77
2024/01/18 09:46:04;;;;;;;23.42;14.45;;;;;;;9.78;58.38;93885.25;5045366;28;20108;-78
2024/01/18 09:48:30;;;;;;;13.50;9.98;;;;;;;10.16;56.66;93895.03;5046374;28;20047;-77
2024/01/18 09:50:56;;;;;;;13.98;9.18;;;;;;;10.14;57.07;93894.72;5046095;28;20025;-78
2024/01/18 09:53:22;;;;;;;12.93;10.77;;;;;;;11.24;54.19;93933.72;5045717;28;20132;-77
2024/01/18 09:55:50;;;;;;;15.75;11.35;;;;;;;11.45;53.50;93882.41;5047019;28;20108;-76
2024/01/18 09:58:15;;;;;;;15.57;11.80;;;;;;;11.31;54.01;93834.34;5044571;28;20091;-77
2024/01/18 10:00:44;;;;;;;13.75;9.45;;;;;;;12.70;51.04;93867.75;5046597;28;20083;-77
2024/01/18 10:03:10;;;;;;;11.60;8.32;;;;;;;12.85;50.28;93842.94;5044686;28;20111;-79
2024/01/18 10:05:36;;;;;;;13.02;9.18;;;;;;;12.71;51.13;93838.94;5046426;28;20100;-86
2024/01/18 10:08:03;;;;;;;11.32;8.38;;;;;;;13.48;49.37;93851.66;5043668;28;20029;-83
2024/01/18 10:10:29;;;;;;;12.93;8.60;;;;;;;14.14;47.26;93848.16;5045595;28;20053;-84
2024/01/18 10:12:54;;;;;;;10.77;7.88;;;;;;;14.85;45.63;93835.56;5045834;28;20076;-84
2024/01/18 10:15:33;;;;;;;13.02;8.70;;;;;;;15.45;45.00;93819.06;5044439;28;20032;-84
2024/01/18 10:18:03;;;;;;;15.38;10.25;;;;;;;15.83;44.31;93823.31;5046456;28;20116;-80
2024/01/18 10:20:29;;;;;;;13.30;9.55;;;;;;;17.12;41.16;93812.44;5044730;28;20147;-78
2024/01/18 10:22:57;;;;;;;13.02;9.70;;;;;;;17.81;40.40;93813.81;5045824;28;20029;-80
2024/01/18 10:25:26;;;;;;;19.90;12.50;;;;;;;17.90;40.12;93819.84;5044666;28;20048;-78
2024/01/18 10:27:55;;;;;;;18.73;11.75;;;;;;;18.53;38.45;93819.00;5045477;28;20028;-79
2024/01/18 10:30:21;;;;;;;14.20;9.80;;;;;;;19.05;37.59;93790.31;5045748;28;20062;-79
2024/01/18 10:32:47;;;;;;;19.90;12.48;;;;;;;20.19;35.79;93798.97;5044287;28;20033;-80
2024/01/18 10:35:23;;;;;;;16.38;11.13;;;;;;;21.33;33.79;93795.50;5046086;28;20021;-79
2024/01/18 10:37:59;;;;;;;11.63;9.15;;;;;;;23.07;30.83;93800.34;5044476;28;20039;-80
2024/01/18 10:40:24;;;;;;;13.02;9.43;;;;;;;23.34;30.75;93792.56;5044727;28;20017;-80
2024/01/18 10:42:49;;;;;;;11.85;9.10;;;;;;;24.42;28.90;93789.09;5044842;28;20044;-78
2024/01/18 10:45:16;;;;;;;12.52;9.30;;;;;;;25.41;27.56;93780.16;5044650;28;20495;-79
2024/01/18 10:47:42;;;;;;;14.05;9.30;;;;;;;25.41;27.43;93782.97;5045506;28;20037;-78
2024/01/18 10:50:07;;;;;;;10.40;7.65;;;;;;;25.82;26.51;93784.66;5044066;28;20112;-79
2024/01/18 10:52:36;;;;;;;13.50;8.25;;;;;;;26.96;25.41;93760.94;5045780;28;20120;-78
2024/01/18 10:55:04;;;;;;;11.40;8.55;;;;;;;27.70;24.30;93742.53;5043816;28;20025;-78
2024/01/18 10:57:29;;;;;;;9.63;8.25;;;;;;;27.56;24.31;93741.31;5045609;28;20051;-78
2024/01/18 10:59:55;;;;;;;9.52;7.57;;;;;;;27.88;23.97;93768.72;5044850;28;20471;-78
2024/01/18 11:02:21;;;;;;;9.65;7.32;;;;;;;28.25;23.71;93761.16;5043319;28;20755;-78
2024/01/18 11:04:47;;;;;;;11.35;7.30;;;;;;;28.81;22.51;93758.59;5045119;28;20036;-79
2024/01/18 11:07:13;;;;;;;9.65;6.97;;;;;;;28.74;22.72;93759.47;5042423;28;20139;-79
2024/01/18 11:09:39;;;;;;;8.25;6.38;;;;;;;27.67;23.27;93743.66;5044221;28;20025;-80
2024/01/18 11:12:06;;;;;;;8.43;6.30;;;;;;;26.74;24.66;93720.28;5043234;28;20044;-80
2024/01/18 11:14:32;;;;;;;9.82;6.95;;;;;;;26.80;24.96;93716.50;5043995;28;20031;-79
2024/01/18 11:17:17;;;;;;;13.52;8.45;;;;;;;27.00;25.15;93713.34;5043706;28;20063;-79
2024/01/18 11:19:44;;;;;;;9.43;6.95;;;;;;;27.13;24.74;93717.25;5044386;28;20021;-79
2024/01/18 11:22:10;;;;;;;9.05;6.53;;;;;;;27.32;24.45;93694.88;5044960;28;20472;-79